sensor_id;sensor_type;location;lat;lon;timestamp;P1;durP1;ratioP1;P2;durP2;ratioP2
21254;SDS011;10785;50.674;17.954;2023-06-22T00:01:31;8.80;;;4.13;;
21254;SDS011;10785;50.674;17.954;2023-06-22T00:03:59;4.50;;;3.05;;
21254;SDS011;10785;50.674;17.954;2023-06-22T00:06:28;5.32;;;3.67;;
21254;SDS011;10785;50.674;17.954;2023-06-22T00:08:57;4.30;;;3.15;;
21254;SDS011;10785;50.674;17.954;2023-06-22T00:11:25;14.93;;;4.18;;
21254;SDS011;10785;50.674;17.954;2023-06-22T00:13:56;4.15;;;2.67;;
21254;SDS011;10785;50.674;17.954;2023-06-22T00:16:24;6.57;;;3.90;;
21254;SDS011;10785;50.674;17.954;2023-06-22T00:18:53;4.00;;;2.92;;
21254;SDS011;10785;50.674;17.954;2023-06-22T00:21:21;8.15;;;4.78;;
21254;SDS011;10785;50.674;17.954;2023-06-22T00:23:50;4.40;;;3.35;;
21254;SDS011;10785;50.674;17.954;2023-06-22T00:26:18;7.28;;;4.00;;
21254;SDS011;10785;50.674;17.954;2023-06-22T00:28:47;6.13;;;4.35;;
21254;SDS011;10785;50.674;17.954;2023-06-22T00:31:17;4.93;;;3.28;;
21254;SDS011;10785;50.674;17.954;2023-06-22T00:33:46;7.47;;;4.35;;
21254;SDS011;10785;50.674;17.954;2023-06-22T00:36:17;11.40;;;4.43;;
21254;SDS011;10785;50.674;17.954;2023-06-22T00:38:45;6.15;;;5.00;;
21254;SDS011;10785;50.674;17.954;2023-06-22T00:41:17;4.13;;;2.65;;
21254;SDS011;10785;50.674;17.954;2023-06-22T00:43:45;7.13;;;3.78;;
21254;SDS011;10785;50.674;17.954;2023-06-22T00:46:14;5.30;;;3.33;;
21254;SDS011;10785;50.674;17.954;2023-06-22T00:48:44;8.38;;;4.63;;
21254;SDS011;10785;50.674;17.954;2023-06-22T00:51:13;5.80;;;3.72;;
21254;SDS011;10785;50.674;17.954;2023-06-22T00:53:41;9.60;;;3.85;;
21254;SDS011;10785;50.674;17.954;2023-06-22T00:56:10;8.40;;;4.20;;
21254;SDS011;10785;50.674;17.954;2023-06-22T00:58:39;6.28;;;4.40;;
21254;SDS011;10785;50.674;17.954;2023-06-22T01:01:09;6.68;;;3.85;;
21254;SDS011;10785;50.674;17.954;2023-06-22T01:03:37;11.95;;;4.40;;
21254;SDS011;10785;50.674;17.954;2023-06-22T01:06:08;9.55;;;4.50;;
21254;SDS011;10785;50.674;17.954;2023-06-22T01:08:40;8.98;;;5.10;;
21254;SDS011;10785;50.674;17.954;2023-06-22T01:11:15;9.38;;;5.22;;
21254;SDS011;10785;50.674;17.954;2023-06-22T01:13:48;6.75;;;3.85;;
21254;SDS011;10785;50.674;17.954;2023-06-22T01:16:26;9.90;;;4.80;;
21254;SDS011;10785;50.674;17.954;2023-06-22T01:19:00;5.43;;;4.88;;
21254;SDS011;10785;50.674;17.954;2023-06-22T01:21:36;7.70;;;4.05;;
21254;SDS011;10785;50.674;17.954;2023-06-22T01:24:22;5.68;;;3.60;;
21254;SDS011;10785;50.674;17.954;2023-06-22T01:26:56;9.45;;;5.43;;
21254;SDS011;10785;50.674;17.954;2023-06-22T01:29:35;6.70;;;4.60;;
21254;SDS011;10785;50.674;17.954;2023-06-22T01:32:06;8.02;;;4.78;;
21254;SDS011;10785;50.674;17.954;2023-06-22T01:34:35;5.72;;;4.65;;
21254;SDS011;10785;50.674;17.954;2023-06-22T01:37:06;6.35;;;3.53;;
21254;SDS011;10785;50.674;17.954;2023-06-22T01:39:36;4.55;;;3.90;;
21254;SDS011;10785;50.674;17.954;2023-06-22T01:42:05;4.85;;;4.35;;
21254;SDS011;10785;50.674;17.954;2023-06-22T01:44:36;7.72;;;4.57;;
21254;SDS011;10785;50.674;17.954;2023-06-22T01:47:08;6.20;;;4.38;;
21254;SDS011;10785;50.674;17.954;2023-06-22T01:49:37;6.55;;;4.80;;
21254;SDS011;10785;50.674;17.954;2023-06-22T01:52:06;8.73;;;4.88;;
21254;SDS011;10785;50.674;17.954;2023-06-22T01:54:36;10.75;;;5.57;;
21254;SDS011;10785;50.674;17.954;2023-06-22T01:57:05;6.63;;;4.03;;
21254;SDS011;10785;50.674;17.954;2023-06-22T01:59:37;9.27;;;5.38;;
21254;SDS011;10785;50.674;17.954;2023-06-22T02:02:12;7.93;;;4.75;;
21254;SDS011;10785;50.674;17.954;2023-06-22T02:04:46;8.65;;;4.35;;
21254;SDS011;10785;50.674;17.954;2023-06-22T02:07:17;9.80;;;4.25;;
21254;SDS011;10785;50.674;17.954;2023-06-22T02:09:48;11.18;;;4.70;;
21254;SDS011;10785;50.674;17.954;2023-06-22T02:12:21;8.48;;;5.13;;
21254;SDS011;10785;50.674;17.954;2023-06-22T02:14:55;8.13;;;4.55;;
21254;SDS011;10785;50.674;17.954;2023-06-22T02:17:25;9.73;;;5.65;;
21254;SDS011;10785;50.674;17.954;2023-06-22T02:19:54;7.32;;;4.40;;
21254;SDS011;10785;50.674;17.954;2023-06-22T02:22:23;8.98;;;4.78;;
21254;SDS011;10785;50.674;17.954;2023-06-22T02:24:51;8.20;;;5.32;;
21254;SDS011;10785;50.674;17.954;2023-06-22T02:27:20;8.38;;;4.70;;
21254;SDS011;10785;50.674;17.954;2023-06-22T02:29:48;8.63;;;5.97;;
21254;SDS011;10785;50.674;17.954;2023-06-22T02:32:18;5.18;;;4.10;;
21254;SDS011;10785;50.674;17.954;2023-06-22T02:34:47;13.07;;;5.45;;
21254;SDS011;10785;50.674;17.954;2023-06-22T02:37:16;6.45;;;4.53;;
21254;SDS011;10785;50.674;17.954;2023-06-22T02:39:45;8.18;;;3.63;;
21254;SDS011;10785;50.674;17.954;2023-06-22T02:42:13;9.85;;;3.67;;
21254;SDS011;10785;50.674;17.954;2023-06-22T02:44:42;6.95;;;4.70;;
21254;SDS011;10785;50.674;17.954;2023-06-22T02:47:12;6.85;;;3.53;;
21254;SDS011;10785;50.674;17.954;2023-06-22T02:49:42;7.43;;;3.70;;
21254;SDS011;10785;50.674;17.954;2023-06-22T02:52:12;4.80;;;4.32;;
21254;SDS011;10785;50.674;17.954;2023-06-22T02:54:40;5.53;;;4.55;;
21254;SDS011;10785;50.674;17.954;2023-06-22T02:57:09;6.95;;;4.65;;
21254;SDS011;10785;50.674;17.954;2023-06-22T02:59:42;4.75;;;3.35;;
21254;SDS011;10785;50.674;17.954;2023-06-22T03:02:12;8.40;;;5.05;;
21254;SDS011;10785;50.674;17.954;2023-06-22T03:04:43;7.57;;;5.57;;
21254;SDS011;10785;50.674;17.954;2023-06-22T03:07:15;6.07;;;4.32;;
21254;SDS011;10785;50.674;17.954;2023-06-22T03:09:45;5.32;;;4.43;;
21254;SDS011;10785;50.674;17.954;2023-06-22T03:12:14;6.43;;;3.30;;
21254;SDS011;10785;50.674;17.954;2023-06-22T03:14:50;35.83;;;6.57;;
21254;SDS011;10785;50.674;17.954;2023-06-22T03:17:18;7.90;;;3.55;;
21254;SDS011;10785;50.674;17.954;2023-06-22T03:19:48;9.98;;;4.50;;
21254;SDS011;10785;50.674;17.954;2023-06-22T03:22:17;7.63;;;4.82;;
21254;SDS011;10785;50.674;17.954;2023-06-22T03:24:45;3.85;;;3.15;;
21254;SDS011;10785;50.674;17.954;2023-06-22T03:27:15;10.80;;;4.28;;
21254;SDS011;10785;50.674;17.954;2023-06-22T03:29:43;5.78;;;4.45;;
21254;SDS011;10785;50.674;17.954;2023-06-22T03:32:12;5.97;;;3.67;;
21254;SDS011;10785;50.674;17.954;2023-06-22T03:34:41;3.92;;;3.22;;
21254;SDS011;10785;50.674;17.954;2023-06-22T03:37:15;4.25;;;3.10;;
21254;SDS011;10785;50.674;17.954;2023-06-22T03:39:44;6.95;;;4.35;;
21254;SDS011;10785;50.674;17.954;2023-06-22T03:42:15;4.50;;;3.15;;
21254;SDS011;10785;50.674;17.954;2023-06-22T03:44:43;9.05;;;5.25;;
21254;SDS011;10785;50.674;17.954;2023-06-22T03:47:12;6.88;;;3.95;;
21254;SDS011;10785;50.674;17.954;2023-06-22T03:49:41;2.42;;;2.22;;
21254;SDS011;10785;50.674;17.954;2023-06-22T03:52:09;6.30;;;3.47;;
21254;SDS011;10785;50.674;17.954;2023-06-22T03:54:39;7.63;;;4.05;;
21254;SDS011;10785;50.674;17.954;2023-06-22T03:57:08;6.10;;;4.32;;
21254;SDS011;10785;50.674;17.954;2023-06-22T03:59:38;12.93;;;5.30;;
21254;SDS011;10785;50.674;17.954;2023-06-22T04:02:06;9.68;;;4.93;;
21254;SDS011;10785;50.674;17.954;2023-06-22T04:04:35;6.70;;;4.50;;
21254;SDS011;10785;50.674;17.954;2023-06-22T04:07:05;10.63;;;3.35;;
21254;SDS011;10785;50.674;17.954;2023-06-22T04:09:34;11.70;;;5.20;;
21254;SDS011;10785;50.674;17.954;2023-06-22T04:12:05;7.60;;;3.97;;
21254;SDS011;10785;50.674;17.954;2023-06-22T04:14:34;8.88;;;4.43;;
21254;SDS011;10785;50.674;17.954;2023-06-22T04:17:03;17.73;;;4.57;;
21254;SDS011;10785;50.674;17.954;2023-06-22T04:19:32;6.38;;;4.40;;
21254;SDS011;10785;50.674;17.954;2023-06-22T04:22:00;7.35;;;3.15;;
21254;SDS011;10785;50.674;17.954;2023-06-22T04:24:29;8.98;;;4.63;;
21254;SDS011;10785;50.674;17.954;2023-06-22T04:26:58;4.57;;;3.33;;
21254;SDS011;10785;50.674;17.954;2023-06-22T04:29:30;29.58;;;4.82;;
21254;SDS011;10785;50.674;17.954;2023-06-22T04:31:59;9.25;;;3.20;;
21254;SDS011;10785;50.674;17.954;2023-06-22T04:34:30;4.32;;;3.70;;
21254;SDS011;10785;50.674;17.954;2023-06-22T04:36:58;10.45;;;4.85;;
21254;SDS011;10785;50.674;17.954;2023-06-22T04:39:27;7.30;;;4.85;;
21254;SDS011;10785;50.674;17.954;2023-06-22T04:41:56;7.45;;;4.03;;
21254;SDS011;10785;50.674;17.954;2023-06-22T04:44:27;6.90;;;4.63;;
21254;SDS011;10785;50.674;17.954;2023-06-22T04:46:57;5.65;;;3.38;;
21254;SDS011;10785;50.674;17.954;2023-06-22T04:49:29;13.48;;;4.55;;
21254;SDS011;10785;50.674;17.954;2023-06-22T04:52:01;6.65;;;4.50;;
21254;SDS011;10785;50.674;17.954;2023-06-22T04:54:31;4.88;;;3.75;;
21254;SDS011;10785;50.674;17.954;2023-06-22T04:57:00;8.48;;;4.65;;
21254;SDS011;10785;50.674;17.954;2023-06-22T04:59:30;12.30;;;4.97;;
21254;SDS011;10785;50.674;17.954;2023-06-22T05:02:01;7.82;;;5.07;;
21254;SDS011;10785;50.674;17.954;2023-06-22T05:04:30;11.38;;;4.57;;
21254;SDS011;10785;50.674;17.954;2023-06-22T05:06:59;10.32;;;5.25;;
21254;SDS011;10785;50.674;17.954;2023-06-22T05:09:28;6.97;;;4.28;;
21254;SDS011;10785;50.674;17.954;2023-06-22T05:11:57;9.18;;;3.97;;
21254;SDS011;10785;50.674;17.954;2023-06-22T05:14:26;8.98;;;5.10;;
21254;SDS011;10785;50.674;17.954;2023-06-22T05:16:55;10.38;;;4.55;;
21254;SDS011;10785;50.674;17.954;2023-06-22T05:19:27;5.20;;;3.38;;
21254;SDS011;10785;50.674;17.954;2023-06-22T05:22:01;6.80;;;4.28;;
21254;SDS011;10785;50.674;17.954;2023-06-22T05:24:30;7.88;;;4.53;;
21254;SDS011;10785;50.674;17.954;2023-06-22T05:26:59;5.75;;;3.88;;
21254;SDS011;10785;50.674;17.954;2023-06-22T05:29:27;7.90;;;4.28;;
21254;SDS011;10785;50.674;17.954;2023-06-22T05:31:56;6.05;;;4.25;;
21254;SDS011;10785;50.674;17.954;2023-06-22T05:34:24;8.05;;;4.40;;
21254;SDS011;10785;50.674;17.954;2023-06-22T05:36:54;11.40;;;4.30;;
21254;SDS011;10785;50.674;17.954;2023-06-22T05:39:26;6.88;;;4.45;;
21254;SDS011;10785;50.674;17.954;2023-06-22T05:41:55;5.53;;;3.55;;
21254;SDS011;10785;50.674;17.954;2023-06-22T05:44:24;4.32;;;2.88;;
21254;SDS011;10785;50.674;17.954;2023-06-22T05:46:52;5.78;;;3.58;;
21254;SDS011;10785;50.674;17.954;2023-06-22T05:49:21;5.00;;;3.05;;
21254;SDS011;10785;50.674;17.954;2023-06-22T05:51:52;8.43;;;3.45;;
21254;SDS011;10785;50.674;17.954;2023-06-22T05:54:21;5.72;;;3.55;;
21254;SDS011;10785;50.674;17.954;2023-06-22T05:56:49;4.63;;;3.35;;
21254;SDS011;10785;50.674;17.954;2023-06-22T05:59:18;8.60;;;3.95;;
21254;SDS011;10785;50.674;17.954;2023-06-22T06:01:47;4.03;;;2.75;;
21254;SDS011;10785;50.674;17.954;2023-06-22T06:04:17;8.38;;;4.00;;
21254;SDS011;10785;50.674;17.954;2023-06-22T06:06:46;5.38;;;3.58;;
21254;SDS011;10785;50.674;17.954;2023-06-22T06:09:16;7.82;;;3.65;;
21254;SDS011;10785;50.674;17.954;2023-06-22T06:11:44;9.30;;;4.03;;
21254;SDS011;10785;50.674;17.954;2023-06-22T06:14:13;2.67;;;2.15;;
21254;SDS011;10785;50.674;17.954;2023-06-22T06:16:43;6.72;;;2.97;;
21254;SDS011;10785;50.674;17.954;2023-06-22T06:19:12;7.00;;;3.22;;
21254;SDS011;10785;50.674;17.954;2023-06-22T06:21:41;6.43;;;2.75;;
21254;SDS011;10785;50.674;17.954;2023-06-22T06:24:09;4.28;;;2.88;;
21254;SDS011;10785;50.674;17.954;2023-06-22T06:26:39;3.88;;;2.20;;
21254;SDS011;10785;50.674;17.954;2023-06-22T06:29:09;5.25;;;2.95;;
21254;SDS011;10785;50.674;17.954;2023-06-22T06:31:38;3.35;;;2.47;;
21254;SDS011;10785;50.674;17.954;2023-06-22T06:34:07;9.40;;;2.50;;
21254;SDS011;10785;50.674;17.954;2023-06-22T06:36:36;3.78;;;2.60;;
21254;SDS011;10785;50.674;17.954;2023-06-22T06:39:04;5.57;;;3.35;;
21254;SDS011;10785;50.674;17.954;2023-06-22T06:41:33;5.05;;;3.22;;
21254;SDS011;10785;50.674;17.954;2023-06-22T06:44:03;5.00;;;3.25;;
21254;SDS011;10785;50.674;17.954;2023-06-22T06:46:32;5.40;;;3.03;;
21254;SDS011;10785;50.674;17.954;2023-06-22T06:49:01;4.72;;;2.85;;
21254;SDS011;10785;50.674;17.954;2023-06-22T06:51:29;4.28;;;3.20;;
21254;SDS011;10785;50.674;17.954;2023-06-22T06:53:58;4.32;;;2.40;;
21254;SDS011;10785;50.674;17.954;2023-06-22T06:56:27;6.22;;;2.72;;
21254;SDS011;10785;50.674;17.954;2023-06-22T07:27:30;1.73;;;1.63;;
21254;SDS011;10785;50.674;17.954;2023-06-22T07:30:05;6.18;;;2.25;;
21254;SDS011;10785;50.674;17.954;2023-06-22T07:32:34;3.38;;;2.30;;
21254;SDS011;10785;50.674;17.954;2023-06-22T07:35:03;2.10;;;1.40;;
21254;SDS011;10785;50.674;17.954;2023-06-22T07:37:34;2.40;;;2.10;;
21254;SDS011;10785;50.674;17.954;2023-06-22T07:40:03;4.10;;;2.70;;
21254;SDS011;10785;50.674;17.954;2023-06-22T07:42:33;3.20;;;1.98;;
21254;SDS011;10785;50.674;17.954;2023-06-22T07:45:02;2.67;;;1.98;;
21254;SDS011;10785;50.674;17.954;2023-06-22T07:47:32;7.10;;;2.85;;
21254;SDS011;10785;50.674;17.954;2023-06-22T07:50:02;4.15;;;2.35;;
21254;SDS011;10785;50.674;17.954;2023-06-22T07:52:32;4.22;;;2.50;;
21254;SDS011;10785;50.674;17.954;2023-06-22T07:55:02;6.95;;;2.97;;
21254;SDS011;10785;50.674;17.954;2023-06-22T07:57:31;5.25;;;3.13;;
21254;SDS011;10785;50.674;17.954;2023-06-22T08:00:02;5.10;;;3.35;;
21254;SDS011;10785;50.674;17.954;2023-06-22T08:02:39;3.17;;;2.05;;
21254;SDS011;10785;50.674;17.954;2023-06-22T08:05:09;5.20;;;1.80;;
21254;SDS011;10785;50.674;17.954;2023-06-22T08:07:47;3.45;;;1.85;;
21254;SDS011;10785;50.674;17.954;2023-06-22T08:10:17;6.05;;;3.13;;
21254;SDS011;10785;50.674;17.954;2023-06-22T08:12:46;6.50;;;4.00;;
21254;SDS011;10785;50.674;17.954;2023-06-22T08:15:15;4.57;;;3.13;;
21254;SDS011;10785;50.674;17.954;2023-06-22T08:17:44;4.60;;;2.75;;
21254;SDS011;10785;50.674;17.954;2023-06-22T08:20:13;6.57;;;3.30;;
21254;SDS011;10785;50.674;17.954;2023-06-22T08:22:42;6.07;;;3.17;;
21254;SDS011;10785;50.674;17.954;2023-06-22T08:25:11;3.70;;;3.13;;
21254;SDS011;10785;50.674;17.954;2023-06-22T08:27:42;4.65;;;3.00;;
21254;SDS011;10785;50.674;17.954;2023-06-22T08:30:14;6.32;;;2.47;;
21254;SDS011;10785;50.674;17.954;2023-06-22T08:32:42;4.20;;;1.98;;
21254;SDS011;10785;50.674;17.954;2023-06-22T08:35:11;3.22;;;2.30;;
21254;SDS011;10785;50.674;17.954;2023-06-22T08:37:40;3.70;;;2.22;;
21254;SDS011;10785;50.674;17.954;2023-06-22T08:40:09;2.80;;;2.35;;
21254;SDS011;10785;50.674;17.954;2023-06-22T08:42:39;2.85;;;2.08;;
21254;SDS011;10785;50.674;17.954;2023-06-22T08:45:10;3.38;;;2.22;;
21254;SDS011;10785;50.674;17.954;2023-06-22T08:47:40;4.30;;;3.33;;
21254;SDS011;10785;50.674;17.954;2023-06-22T08:50:09;5.30;;;2.47;;
21254;SDS011;10785;50.674;17.954;2023-06-22T08:52:40;3.83;;;3.00;;
21254;SDS011;10785;50.674;17.954;2023-06-22T08:55:09;3.58;;;2.35;;
21254;SDS011;10785;50.674;17.954;2023-06-22T08:57:38;5.63;;;2.50;;
21254;SDS011;10785;50.674;17.954;2023-06-22T09:00:09;6.20;;;2.70;;
21254;SDS011;10785;50.674;17.954;2023-06-22T09:02:44;6.50;;;3.50;;
21254;SDS011;10785;50.674;17.954;2023-06-22T09:05:14;5.55;;;3.15;;
21254;SDS011;10785;50.674;17.954;2023-06-22T09:07:43;3.38;;;2.50;;
21254;SDS011;10785;50.674;17.954;2023-06-22T09:10:11;4.32;;;2.13;;
21254;SDS011;10785;50.674;17.954;2023-06-22T09:12:41;4.78;;;2.58;;
21254;SDS011;10785;50.674;17.954;2023-06-22T09:15:11;5.82;;;2.53;;
21254;SDS011;10785;50.674;17.954;2023-06-22T09:17:44;4.65;;;2.70;;
21254;SDS011;10785;50.674;17.954;2023-06-22T09:20:14;6.03;;;3.20;;
21254;SDS011;10785;50.674;17.954;2023-06-22T09:22:43;4.38;;;3.00;;
21254;SDS011;10785;50.674;17.954;2023-06-22T09:25:12;3.25;;;2.00;;
21254;SDS011;10785;50.674;17.954;2023-06-22T09:27:40;7.83;;;2.53;;
21254;SDS011;10785;50.674;17.954;2023-06-22T09:30:11;3.13;;;2.35;;
21254;SDS011;10785;50.674;17.954;2023-06-22T09:32:40;6.28;;;2.50;;
21254;SDS011;10785;50.674;17.954;2023-06-22T09:35:09;3.13;;;2.47;;
21254;SDS011;10785;50.674;17.954;2023-06-22T09:37:39;6.40;;;3.60;;
21254;SDS011;10785;50.674;17.954;2023-06-22T09:40:08;2.80;;;2.38;;
21254;SDS011;10785;50.674;17.954;2023-06-22T09:42:39;3.10;;;2.05;;
21254;SDS011;10785;50.674;17.954;2023-06-22T09:45:10;3.65;;;2.17;;
21254;SDS011;10785;50.674;17.954;2023-06-22T10:00:32;3.40;;;2.00;;
21254;SDS011;10785;50.674;17.954;2023-06-22T10:03:00;3.75;;;2.30;;
21254;SDS011;10785;50.674;17.954;2023-06-22T10:05:29;4.90;;;3.05;;
21254;SDS011;10785;50.674;17.954;2023-06-22T10:07:59;2.28;;;1.83;;
21254;SDS011;10785;50.674;17.954;2023-06-22T10:10:28;6.10;;;2.90;;
21254;SDS011;10785;50.674;17.954;2023-06-22T10:12:57;3.08;;;2.28;;
21254;SDS011;10785;50.674;17.954;2023-06-22T10:15:31;3.38;;;1.67;;
21254;SDS011;10785;50.674;17.954;2023-06-22T10:18:00;5.65;;;2.30;;
21254;SDS011;10785;50.674;17.954;2023-06-22T10:20:29;5.80;;;2.38;;
21254;SDS011;10785;50.674;17.954;2023-06-22T10:22:57;4.22;;;2.90;;
21254;SDS011;10785;50.674;17.954;2023-06-22T10:25:26;3.90;;;2.20;;
21254;SDS011;10785;50.674;17.954;2023-06-22T10:27:55;4.10;;;2.40;;
21254;SDS011;10785;50.674;17.954;2023-06-22T10:30:25;2.70;;;1.90;;
21254;SDS011;10785;50.674;17.954;2023-06-22T10:32:55;2.60;;;1.88;;
21254;SDS011;10785;50.674;17.954;2023-06-22T10:35:23;3.08;;;2.25;;
21254;SDS011;10785;50.674;17.954;2023-06-22T10:37:52;2.08;;;1.55;;
21254;SDS011;10785;50.674;17.954;2023-06-22T10:40:23;4.80;;;3.15;;
21254;SDS011;10785;50.674;17.954;2023-06-22T10:42:51;3.58;;;1.83;;
21254;SDS011;10785;50.674;17.954;2023-06-22T10:45:20;3.83;;;2.13;;
21254;SDS011;10785;50.674;17.954;2023-06-22T10:47:49;2.35;;;2.13;;
21254;SDS011;10785;50.674;17.954;2023-06-22T10:50:19;4.32;;;2.33;;
21254;SDS011;10785;50.674;17.954;2023-06-22T10:52:47;3.28;;;2.17;;
21254;SDS011;10785;50.674;17.954;2023-06-22T10:55:16;3.25;;;2.05;;
21254;SDS011;10785;50.674;17.954;2023-06-22T10:57:45;4.80;;;2.33;;
21254;SDS011;10785;50.674;17.954;2023-06-22T11:00:14;3.00;;;1.88;;
21254;SDS011;10785;50.674;17.954;2023-06-22T11:02:43;2.00;;;1.45;;
21254;SDS011;10785;50.674;17.954;2023-06-22T11:05:12;2.75;;;1.60;;
21254;SDS011;10785;50.674;17.954;2023-06-22T11:07:42;3.20;;;1.45;;
21254;SDS011;10785;50.674;17.954;2023-06-22T11:10:12;4.70;;;2.47;;
21254;SDS011;10785;50.674;17.954;2023-06-22T11:12:41;2.55;;;2.13;;
21254;SDS011;10785;50.674;17.954;2023-06-22T11:17:48;5.85;;;2.72;;
21254;SDS011;10785;50.674;17.954;2023-06-22T11:20:17;4.13;;;2.33;;
21254;SDS011;10785;50.674;17.954;2023-06-22T11:22:47;4.22;;;2.20;;
21254;SDS011;10785;50.674;17.954;2023-06-22T11:25:16;4.72;;;1.70;;
21254;SDS011;10785;50.674;17.954;2023-06-22T11:27:45;6.07;;;1.73;;
21254;SDS011;10785;50.674;17.954;2023-06-22T11:33:07;5.00;;;2.28;;
21254;SDS011;10785;50.674;17.954;2023-06-22T11:35:36;2.25;;;1.40;;
21254;SDS011;10785;50.674;17.954;2023-06-22T11:38:06;1.48;;;1.20;;
21254;SDS011;10785;50.674;17.954;2023-06-22T11:40:34;12.85;;;2.67;;
21254;SDS011;10785;50.674;17.954;2023-06-22T11:43:03;3.47;;;1.88;;
21254;SDS011;10785;50.674;17.954;2023-06-22T11:45:31;3.85;;;2.13;;
21254;SDS011;10785;50.674;17.954;2023-06-22T11:48:00;3.97;;;1.85;;
21254;SDS011;10785;50.674;17.954;2023-06-22T11:50:28;3.15;;;2.20;;
21254;SDS011;10785;50.674;17.954;2023-06-22T11:53:01;4.82;;;1.65;;
21254;SDS011;10785;50.674;17.954;2023-06-22T11:55:31;4.45;;;2.33;;
21254;SDS011;10785;50.674;17.954;2023-06-22T11:58:00;3.22;;;2.20;;
21254;SDS011;10785;50.674;17.954;2023-06-22T12:00:30;2.95;;;2.10;;
21254;SDS011;10785;50.674;17.954;2023-06-22T12:03:16;4.00;;;2.47;;
21254;SDS011;10785;50.674;17.954;2023-06-22T12:05:45;3.45;;;1.83;;
21254;SDS011;10785;50.674;17.954;2023-06-22T12:08:13;7.00;;;2.03;;
21254;SDS011;10785;50.674;17.954;2023-06-22T12:10:43;2.63;;;1.58;;
21254;SDS011;10785;50.674;17.954;2023-06-22T12:13:12;2.80;;;2.08;;
21254;SDS011;10785;50.674;17.954;2023-06-22T12:15:41;15.75;;;2.50;;
21254;SDS011;10785;50.674;17.954;2023-06-22T12:18:10;7.25;;;2.38;;
21254;SDS011;10785;50.674;17.954;2023-06-22T12:20:41;4.00;;;2.30;;
21254;SDS011;10785;50.674;17.954;2023-06-22T12:23:09;3.28;;;1.80;;
21254;SDS011;10785;50.674;17.954;2023-06-22T12:25:38;5.20;;;2.33;;
21254;SDS011;10785;50.674;17.954;2023-06-22T12:28:08;4.03;;;2.33;;
21254;SDS011;10785;50.674;17.954;2023-06-22T12:30:36;3.60;;;2.67;;
21254;SDS011;10785;50.674;17.954;2023-06-22T12:33:05;3.33;;;2.47;;
21254;SDS011;10785;50.674;17.954;2023-06-22T12:38:47;2.03;;;1.40;;
21254;SDS011;10785;50.674;17.954;2023-06-22T12:41:15;1.27;;;1.17;;
21254;SDS011;10785;50.674;17.954;2023-06-22T12:43:46;8.50;;;2.55;;
21254;SDS011;10785;50.674;17.954;2023-06-22T12:46:14;2.05;;;1.42;;
21254;SDS011;10785;50.674;17.954;2023-06-22T12:48:43;4.40;;;2.15;;
21254;SDS011;10785;50.674;17.954;2023-06-22T12:51:11;4.07;;;2.30;;
21254;SDS011;10785;50.674;17.954;2023-06-22T12:53:40;7.07;;;3.20;;
21254;SDS011;10785;50.674;17.954;2023-06-22T12:56:08;2.53;;;1.88;;
21254;SDS011;10785;50.674;17.954;2023-06-22T12:58:37;4.68;;;2.45;;
21254;SDS011;10785;50.674;17.954;2023-06-22T13:01:07;4.45;;;2.25;;
21254;SDS011;10785;50.674;17.954;2023-06-22T13:03:36;1.80;;;1.42;;
21254;SDS011;10785;50.674;17.954;2023-06-22T13:06:04;3.72;;;2.20;;
21254;SDS011;10785;50.674;17.954;2023-06-22T13:08:33;3.08;;;1.73;;
21254;SDS011;10785;50.674;17.954;2023-06-22T13:11:22;4.53;;;2.08;;
21254;SDS011;10785;50.674;17.954;2023-06-22T13:13:50;4.82;;;2.58;;
21254;SDS011;10785;50.674;17.954;2023-06-22T13:16:20;2.22;;;1.42;;
21254;SDS011;10785;50.674;17.954;2023-06-22T13:18:49;4.05;;;1.65;;
21254;SDS011;10785;50.674;17.954;2023-06-22T13:21:18;4.10;;;2.20;;
21254;SDS011;10785;50.674;17.954;2023-06-22T13:23:46;2.28;;;2.08;;
21254;SDS011;10785;50.674;17.954;2023-06-22T13:26:15;3.60;;;1.90;;
21254;SDS011;10785;50.674;17.954;2023-06-22T13:28:43;3.33;;;2.17;;
21254;SDS011;10785;50.674;17.954;2023-06-22T13:31:12;4.22;;;2.03;;
21254;SDS011;10785;50.674;17.954;2023-06-22T13:33:43;1.88;;;1.65;;
21254;SDS011;10785;50.674;17.954;2023-06-22T13:36:29;1.73;;;1.45;;
21254;SDS011;10785;50.674;17.954;2023-06-22T13:38:58;4.65;;;2.03;;
21254;SDS011;10785;50.674;17.954;2023-06-22T13:41:27;4.55;;;2.42;;
21254;SDS011;10785;50.674;17.954;2023-06-22T13:43:55;2.33;;;1.00;;
21254;SDS011;10785;50.674;17.954;2023-06-22T13:46:25;7.75;;;1.83;;
21254;SDS011;10785;50.674;17.954;2023-06-22T13:48:55;2.13;;;1.45;;
21254;SDS011;10785;50.674;17.954;2023-06-22T13:51:24;4.85;;;1.70;;
21254;SDS011;10785;50.674;17.954;2023-06-22T13:53:52;2.20;;;1.50;;
21254;SDS011;10785;50.674;17.954;2023-06-22T13:56:21;3.40;;;2.08;;
21254;SDS011;10785;50.674;17.954;2023-06-22T13:58:50;4.32;;;1.92;;
21254;SDS011;10785;50.674;17.954;2023-06-22T14:01:18;2.42;;;1.30;;
21254;SDS011;10785;50.674;17.954;2023-06-22T14:32:47;3.38;;;1.40;;
21254;SDS011;10785;50.674;17.954;2023-06-22T14:35:16;3.33;;;1.98;;
21254;SDS011;10785;50.674;17.954;2023-06-22T14:37:45;1.92;;;1.45;;
21254;SDS011;10785;50.674;17.954;2023-06-22T14:40:13;3.50;;;2.25;;
21254;SDS011;10785;50.674;17.954;2023-06-22T14:42:42;4.30;;;1.80;;
21254;SDS011;10785;50.674;17.954;2023-06-22T14:45:12;2.63;;;1.85;;
21254;SDS011;10785;50.674;17.954;2023-06-22T14:47:41;2.08;;;1.63;;
21254;SDS011;10785;50.674;17.954;2023-06-22T14:50:11;3.03;;;2.05;;
21254;SDS011;10785;50.674;17.954;2023-06-22T14:52:40;3.42;;;1.88;;
21254;SDS011;10785;50.674;17.954;2023-06-22T14:55:09;4.55;;;1.92;;
21254;SDS011;10785;50.674;17.954;2023-06-22T14:57:38;4.03;;;2.00;;
21254;SDS011;10785;50.674;17.954;2023-06-22T15:00:07;1.25;;;1.17;;
21254;SDS011;10785;50.674;17.954;2023-06-22T15:02:36;4.22;;;2.25;;
21254;SDS011;10785;50.674;17.954;2023-06-22T15:05:05;3.33;;;2.15;;
21254;SDS011;10785;50.674;17.954;2023-06-22T15:07:35;2.88;;;1.98;;
21254;SDS011;10785;50.674;17.954;2023-06-22T15:10:04;3.72;;;2.22;;
21254;SDS011;10785;50.674;17.954;2023-06-22T15:12:34;2.92;;;1.38;;
21254;SDS011;10785;50.674;17.954;2023-06-22T15:15:03;3.13;;;1.38;;
21254;SDS011;10785;50.674;17.954;2023-06-22T15:17:32;2.22;;;1.42;;
21254;SDS011;10785;50.674;17.954;2023-06-22T15:20:01;2.47;;;1.80;;
21254;SDS011;10785;50.674;17.954;2023-06-22T15:22:32;2.95;;;1.35;;
21254;SDS011;10785;50.674;17.954;2023-06-22T15:25:02;2.78;;;1.35;;
21254;SDS011;10785;50.674;17.954;2023-06-22T15:27:31;3.38;;;1.75;;
21254;SDS011;10785;50.674;17.954;2023-06-22T15:29:59;4.05;;;1.55;;
21254;SDS011;10785;50.674;17.954;2023-06-22T15:32:32;1.40;;;1.30;;
21254;SDS011;10785;50.674;17.954;2023-06-22T15:35:00;2.50;;;1.20;;
21254;SDS011;10785;50.674;17.954;2023-06-22T15:37:30;1.75;;;1.48;;
21254;SDS011;10785;50.674;17.954;2023-06-22T15:39:59;2.28;;;1.40;;
21254;SDS011;10785;50.674;17.954;2023-06-22T15:42:31;3.47;;;1.83;;
21254;SDS011;10785;50.674;17.954;2023-06-22T15:44:59;2.65;;;1.35;;
21254;SDS011;10785;50.674;17.954;2023-06-22T15:47:31;2.58;;;1.42;;
21254;SDS011;10785;50.674;17.954;2023-06-22T15:50:00;2.28;;;1.42;;
21254;SDS011;10785;50.674;17.954;2023-06-22T15:52:31;3.25;;;2.17;;
21254;SDS011;10785;50.674;17.954;2023-06-22T15:54:59;1.83;;;1.42;;
21254;SDS011;10785;50.674;17.954;2023-06-22T15:57:32;1.48;;;1.38;;
21254;SDS011;10785;50.674;17.954;2023-06-22T16:00:01;1.52;;;1.35;;
21254;SDS011;10785;50.674;17.954;2023-06-22T16:02:33;2.88;;;1.60;;
21254;SDS011;10785;50.674;17.954;2023-06-22T16:05:03;1.73;;;1.10;;
21254;SDS011;10785;50.674;17.954;2023-06-22T16:07:32;4.00;;;1.80;;